sensor_id;sensor_type;location;lat;lon;timestamp;P1;durP1;ratioP1;P2;durP2;ratioP2
45734;SDS011;31446;49.632;8.328;2023-06-22T00:09:33;8.18;;;5.82;;
45734;SDS011;31446;49.632;8.328;2023-06-22T00:24:39;12.70;;;7.57;;
45734;SDS011;31446;49.632;8.328;2023-06-22T00:39:45;11.20;;;7.30;;
45734;SDS011;31446;49.632;8.328;2023-06-22T00:54:51;26.52;;;8.98;;
45734;SDS011;31446;49.632;8.328;2023-06-22T01:09:59;16.92;;;9.60;;
45734;SDS011;31446;49.632;8.328;2023-06-22T01:25:13;21.40;;;12.03;;
45734;SDS011;31446;49.632;8.328;2023-06-22T01:40:25;17.60;;;13.98;;
45734;SDS011;31446;49.632;8.328;2023-06-22T01:55:32;17.48;;;13.75;;
45734;SDS011;31446;49.632;8.328;2023-06-22T02:10:38;18.73;;;12.60;;
45734;SDS011;31446;49.632;8.328;2023-06-22T02:25:47;17.83;;;14.10;;
45734;SDS011;31446;49.632;8.328;2023-06-22T02:40:53;28.35;;;16.13;;
45734;SDS011;31446;49.632;8.328;2023-06-22T02:56:00;18.90;;;16.13;;
45734;SDS011;31446;49.632;8.328;2023-06-22T03:11:08;21.05;;;14.32;;
45734;SDS011;31446;49.632;8.328;2023-06-22T03:26:16;19.42;;;13.70;;
45734;SDS011;31446;49.632;8.328;2023-06-22T03:41:22;19.02;;;14.32;;
45734;SDS011;31446;49.632;8.328;2023-06-22T03:56:28;15.95;;;13.88;;
45734;SDS011;31446;49.632;8.328;2023-06-22T04:11:35;15.75;;;13.15;;
45734;SDS011;31446;49.632;8.328;2023-06-22T04:26:41;14.18;;;11.88;;
45734;SDS011;31446;49.632;8.328;2023-06-22T04:41:50;15.45;;;11.27;;
45734;SDS011;31446;49.632;8.328;2023-06-22T04:56:57;14.48;;;10.73;;
45734;SDS011;31446;49.632;8.328;2023-06-22T05:12:04;21.48;;;10.50;;
45734;SDS011;31446;49.632;8.328;2023-06-22T05:27:11;18.85;;;9.30;;
45734;SDS011;31446;49.632;8.328;2023-06-22T05:42:19;14.15;;;9.60;;
45734;SDS011;31446;49.632;8.328;2023-06-22T05:57:25;17.63;;;10.57;;
45734;SDS011;31446;49.632;8.328;2023-06-22T06:12:31;14.57;;;10.57;;
45734;SDS011;31446;49.632;8.328;2023-06-22T06:43:24;17.00;;;9.55;;
45734;SDS011;31446;49.632;8.328;2023-06-22T06:58:30;15.45;;;8.57;;
45734;SDS011;31446;49.632;8.328;2023-06-22T07:13:36;16.77;;;9.73;;
45734;SDS011;31446;49.632;8.328;2023-06-22T07:28:43;15.53;;;8.57;;
45734;SDS011;31446;49.632;8.328;2023-06-22T07:43:49;14.30;;;8.90;;
45734;SDS011;31446;49.632;8.328;2023-06-22T07:58:56;11.37;;;6.63;;
45734;SDS011;31446;49.632;8.328;2023-06-22T08:14:04;13.27;;;7.65;;
45734;SDS011;31446;49.632;8.328;2023-06-22T08:29:11;11.83;;;7.27;;
45734;SDS011;31446;49.632;8.328;2023-06-22T08:44:18;11.13;;;6.83;;
45734;SDS011;31446;49.632;8.328;2023-06-22T08:59:25;10.80;;;6.47;;
45734;SDS011;31446;49.632;8.328;2023-06-22T09:14:32;8.60;;;7.33;;
45734;SDS011;31446;49.632;8.328;2023-06-22T09:29:39;13.33;;;7.17;;
45734;SDS011;31446;49.632;8.328;2023-06-22T09:44:47;8.73;;;6.47;;
45734;SDS011;31446;49.632;8.328;2023-06-22T09:59:54;10.23;;;6.07;;
45734;SDS011;31446;49.632;8.328;2023-06-22T10:15:02;8.10;;;4.80;;
45734;SDS011;31446;49.632;8.328;2023-06-22T10:30:12;5.53;;;4.47;;
45734;SDS011;31446;49.632;8.328;2023-06-22T10:45:19;12.80;;;4.47;;
45734;SDS011;31446;49.632;8.328;2023-06-22T11:00:26;13.20;;;4.77;;
45734;SDS011;31446;49.632;8.328;2023-06-22T11:15:33;12.37;;;5.03;;
45734;SDS011;31446;49.632;8.328;2023-06-22T11:30:40;11.37;;;4.83;;
45734;SDS011;31446;49.632;8.328;2023-06-22T11:45:46;12.90;;;5.17;;
45734;SDS011;31446;49.632;8.328;2023-06-22T12:00:53;22.07;;;5.33;;
45734;SDS011;31446;49.632;8.328;2023-06-22T12:15:59;14.13;;;4.87;;
45734;SDS011;31446;49.632;8.328;2023-06-22T12:31:06;13.23;;;5.13;;
45734;SDS011;31446;49.632;8.328;2023-06-22T12:46:12;13.33;;;4.87;;
45734;SDS011;31446;49.632;8.328;2023-06-22T13:01:20;14.83;;;5.00;;
45734;SDS011;31446;49.632;8.328;2023-06-22T13:16:27;15.13;;;4.37;;
45734;SDS011;31446;49.632;8.328;2023-06-22T13:31:33;19.33;;;5.10;;
45734;SDS011;31446;49.632;8.328;2023-06-22T13:46:40;15.03;;;4.70;;
45734;SDS011;31446;49.632;8.328;2023-06-22T14:01:46;13.20;;;5.37;;
45734;SDS011;31446;49.632;8.328;2023-06-22T14:16:53;15.90;;;5.10;;
45734;SDS011;31446;49.632;8.328;2023-06-22T14:31:59;21.03;;;4.90;;
45734;SDS011;31446;49.632;8.328;2023-06-22T14:47:06;12.70;;;4.83;;
45734;SDS011;31446;49.632;8.328;2023-06-22T15:02:13;15.10;;;5.00;;
45734;SDS011;31446;49.632;8.328;2023-06-22T15:17:19;14.23;;;5.73;;
45734;SDS011;31446;49.632;8.328;2023-06-22T15:32:25;11.80;;;4.40;;
45734;SDS011;31446;49.632;8.328;2023-06-22T15:47:32;13.80;;;5.70;;
45734;SDS011;31446;49.632;8.328;2023-06-22T16:02:38;27.07;;;7.60;;
45734;SDS011;31446;49.632;8.328;2023-06-22T16:17:44;11.90;;;5.30;;
45734;SDS011;31446;49.632;8.328;2023-06-22T16:32:54;23.53;;;3.97;;
45734;SDS011;31446;49.632;8.328;2023-06-22T16:48:02;26.95;;;5.88;;
45734;SDS011;31446;49.632;8.328;2023-06-22T17:03:08;16.45;;;4.78;;
45734;SDS011;31446;49.632;8.328;2023-06-22T17:18:20;17.08;;;4.65;;
45734;SDS011;31446;49.632;8.328;2023-06-22T17:33:27;14.63;;;3.80;;
45734;SDS011;31446;49.632;8.328;2023-06-22T17:48:34;18.33;;;4.03;;
45734;SDS011;31446;49.632;8.328;2023-06-22T18:03:40;14.80;;;3.70;;
45734;SDS011;31446;49.632;8.328;2023-06-22T18:18:47;12.03;;;3.57;;
45734;SDS011;31446;49.632;8.328;2023-06-22T18:33:55;20.17;;;3.47;;
45734;SDS011;31446;49.632;8.328;2023-06-22T18:49:11;13.88;;;3.72;;
45734;SDS011;31446;49.632;8.328;2023-06-22T19:04:19;11.48;;;2.70;;
45734;SDS011;31446;49.632;8.328;2023-06-22T19:19:26;3.58;;;1.98;;
45734;SDS011;31446;49.632;8.328;2023-06-22T19:34:32;6.85;;;1.48;;
45734;SDS011;31446;49.632;8.328;2023-06-22T19:49:40;2.50;;;0.50;;
45734;SDS011;31446;49.632;8.328;2023-06-22T20:04:47;11.35;;;1.17;;
45734;SDS011;31446;49.632;8.328;2023-06-22T20:19:55;0.82;;;0.73;;
45734;SDS011;31446;49.632;8.328;2023-06-22T20:35:02;2.55;;;0.88;;
45734;SDS011;31446;49.632;8.328;2023-06-22T20:50:09;2.30;;;0.60;;
45734;SDS011;31446;49.632;8.328;2023-06-22T21:05:15;0.82;;;0.55;;
45734;SDS011;31446;49.632;8.328;2023-06-22T21:20:22;0.52;;;0.40;;
45734;SDS011;31446;49.632;8.328;2023-06-22T21:35:29;3.58;;;0.70;;
45734;SDS011;31446;49.632;8.328;2023-06-22T21:50:36;1.02;;;0.75;;
45734;SDS011;31446;49.632;8.328;2023-06-22T22:05:42;3.33;;;0.52;;
45734;SDS011;31446;49.632;8.328;2023-06-22T22:20:48;1.35;;;1.08;;
45734;SDS011;31446;49.632;8.328;2023-06-22T22:35:55;0.30;;;0.30;;
45734;SDS011;31446;49.632;8.328;2023-06-22T22:51:02;3.50;;;0.35;;
45734;SDS011;31446;49.632;8.328;2023-06-22T23:06:11;1.55;;;1.08;;
45734;SDS011;31446;49.632;8.328;2023-06-22T23:21:17;8.15;;;1.30;;
45734;SDS011;31446;49.632;8.328;2023-06-22T23:36:24;2.97;;;1.20;;
45734;SDS011;31446;49.632;8.328;2023-06-22T23:51:31;1.90;;;1.70;;
